Valle Azzurra — ICEG — position and weather

sailwx.info

Track history (hours):
 
Tides and Currents Weather Stations Pressure Air Temp Water Temp Dewpoint Dewpoint Depression Visibility Wind Speed Wind Dir Waves Ship Positions

Valle Azzurra

Last reported at 2014-Oct-08 12:29 UTC. Time now 2014-Oct-20 09:48 UTC.
Position N 50°39' W 005°46'.
Warning: this ship's position is 11 days out of date.

Length 183 m; draft 12.5 m.

Type: Ship (hazmat cat A). MMSI: 247226600.

Date/timePositionNaut miles runAvg speedWind from/ knotsBaromVisibWave heightAir tempDewpointWater temp
2014-Oct-08 12:29N 50°39' W 005°46'24910.0
2014-Oct-07 11:33N 50°44' E 000°48'2311.5
2014-Oct-07 09:31N 50°59' E 001°17'1111.8
2014-Oct-07 08:33N 51°06' E 001°32'1414.2
2014-Oct-07 07:33N 51°16' E 001°47'1615.7
2014-Oct-07 06:33N 51°29' E 002°01'1515.2
2014-Oct-07 05:33N 51°41' E 002°17'1414.3
2014-Oct-07 04:32N 51°51' E 002°33'44211.8
2014-Oct-05 15:08N 57°50' E 010°02'712.4
2014-Oct-05 14:33N 57°50' E 010°15'1212.2
2014-Oct-05 13:33N 57°49' E 010°38'1010.3
2014-Oct-05 12:34N 57°44' E 010°55'1110.8
2014-Oct-05 11:33N 57°36' E 011°09'1312.9
2014-Oct-05 10:33N 57°27' E 011°25'1313.2
2014-Oct-05 09:33N 57°15' E 011°35'1313.4
2014-Oct-05 08:33N 57°02' E 011°43'1313.3
2014-Oct-05 07:33N 56°49' E 011°51'1212.3
2014-Oct-05 06:33N 56°38' E 011°45'1312.6
2014-Oct-05 05:33N 56°27' E 011°33'1212.4
2014-Oct-05 04:33N 56°16' E 011°22'1312.6
2014-Oct-05 03:31N 56°05' E 011°09'1613.9
2014-Oct-05 02:21N 55°52' E 010°52'2813.1
2014-Oct-05 00:11N 55°24' E 011°01'913.8
2014-Oct-04 23:31N 55°15' E 011°05'1111.8
2014-Oct-04 22:33N 55°04' E 010°60'1312.7
2014-Oct-04 21:33N 54°53' E 010°50'1312.6
2014-Oct-04 20:33N 54°40' E 010°48'1212.6
2014-Oct-04 19:33N 54°37' E 011°09'1413.6
2014-Oct-04 18:34N 54°31' E 011°30'1313.3
2014-Oct-04 17:34N 54°27' E 011°52'1212.3
2014-Oct-04 16:34N 54°29' E 012°12'1110.9
2014-Oct-04 15:33N 54°39' E 012°19'1211.6
2014-Oct-04 14:34N 54°45' E 012°36'1211.9
2014-Oct-04 13:33N 54°50' E 012°55'1312.4
2014-Oct-04 12:31N 54°55' E 013°16'1212.3
2014-Oct-04 11:34N 54°58' E 013°35'1212.3
2014-Oct-04 10:34N 55°03' E 013°55'1211.9
2014-Oct-04 09:32N 55°11' E 014°11'1111.5
2014-Oct-04 08:34N 55°19' E 014°25'1212.0
2014-Oct-04 07:33N 55°28' E 014°40'1212.2
2014-Oct-04 06:34N 55°34' E 014°58'1212.4
2014-Oct-04 05:33N 55°40' E 015°18'1312.6
2014-Oct-04 04:33N 55°46' E 015°37'1312.6
2014-Oct-04 03:33N 55°52' E 015°57'3912.9
2014-Oct-04 00:33N 56°14' E 016°54'2912.8
2014-Oct-03 22:18N 56°31' E 017°36'1612.7
2014-Oct-03 21:05N 56°40' E 017°59'2112.6
2014-Oct-03 19:24N 56°53' E 018°30'22112.4
2014-Oct-03 01:31N 59°37' E 023°11'1212.8
2014-Oct-03 00:33N 59°40' E 023°35'1313.0
2014-Oct-02 23:33N 59°43' E 023°60'1312.8
2014-Oct-02 22:34N 59°46' E 024°24'1312.8
2014-Oct-02 21:33N 59°50' E 024°49'2611.0
2014-Oct-02 19:10N 60°03' E 025°34'  
Track history (hours):
 
Tides and Currents Weather Stations Pressure Air Temp Water Temp Dewpoint Dewpoint Depression Visibility Wind Speed Wind Dir Waves Ship Positions

Valle Azzurra

Last reported at 2014-Oct-08 12:29 UTC. Time now 2014-Oct-20 09:48 UTC.
Position N 50°39' W 005°46'.
Warning: this ship's position is 11 days out of date.

Length 183 m; draft 12.5 m.

Type: Ship (hazmat cat A). MMSI: 247226600.

Date/timePositionNaut miles runAvg speedWind from/ knotsBaromVisibWave heightAir tempDewpointWater temp
2014-Oct-08 12:29N 50°39' W 005°46'24910.0
2014-Oct-07 11:33N 50°44' E 000°48'2311.5
2014-Oct-07 09:31N 50°59' E 001°17'1111.8
2014-Oct-07 08:33N 51°06' E 001°32'1414.2
2014-Oct-07 07:33N 51°16' E 001°47'1615.7
2014-Oct-07 06:33N 51°29' E 002°01'1515.2
2014-Oct-07 05:33N 51°41' E 002°17'1414.3
2014-Oct-07 04:32N 51°51' E 002°33'44211.8
2014-Oct-05 15:08N 57°50' E 010°02'712.4
2014-Oct-05 14:33N 57°50' E 010°15'1212.2
2014-Oct-05 13:33N 57°49' E 010°38'1010.3
2014-Oct-05 12:34N 57°44' E 010°55'1110.8
2014-Oct-05 11:33N 57°36' E 011°09'1312.9
2014-Oct-05 10:33N 57°27' E 011°25'1313.2
2014-Oct-05 09:33N 57°15' E 011°35'1313.4
2014-Oct-05 08:33N 57°02' E 011°43'1313.3
2014-Oct-05 07:33N 56°49' E 011°51'1212.3
2014-Oct-05 06:33N 56°38' E 011°45'1312.6
2014-Oct-05 05:33N 56°27' E 011°33'1212.4
2014-Oct-05 04:33N 56°16' E 011°22'1312.6
2014-Oct-05 03:31N 56°05' E 011°09'1613.9
2014-Oct-05 02:21N 55°52' E 010°52'2813.1
2014-Oct-05 00:11N 55°24' E 011°01'913.8
2014-Oct-04 23:31N 55°15' E 011°05'1111.8
2014-Oct-04 22:33N 55°04' E 010°60'1312.7
2014-Oct-04 21:33N 54°53' E 010°50'1312.6
2014-Oct-04 20:33N 54°40' E 010°48'1212.6
2014-Oct-04 19:33N 54°37' E 011°09'1413.6
2014-Oct-04 18:34N 54°31' E 011°30'1313.3
2014-Oct-04 17:34N 54°27' E 011°52'1212.3
2014-Oct-04 16:34N 54°29' E 012°12'1110.9
2014-Oct-04 15:33N 54°39' E 012°19'1211.6
2014-Oct-04 14:34N 54°45' E 012°36'1211.9
2014-Oct-04 13:33N 54°50' E 012°55'1312.4
2014-Oct-04 12:31N 54°55' E 013°16'1212.3
2014-Oct-04 11:34N 54°58' E 013°35'1212.3
2014-Oct-04 10:34N 55°03' E 013°55'1211.9
2014-Oct-04 09:32N 55°11' E 014°11'1111.5
2014-Oct-04 08:34N 55°19' E 014°25'1212.0
2014-Oct-04 07:33N 55°28' E 014°40'1212.2
2014-Oct-04 06:34N 55°34' E 014°58'1212.4
2014-Oct-04 05:33N 55°40' E 015°18'1312.6
2014-Oct-04 04:33N 55°46' E 015°37'1312.6
2014-Oct-04 03:33N 55°52' E 015°57'3912.9
2014-Oct-04 00:33N 56°14' E 016°54'2912.8
2014-Oct-03 22:18N 56°31' E 017°36'1612.7
2014-Oct-03 21:05N 56°40' E 017°59'2112.6
2014-Oct-03 19:24N 56°53' E 018°30'22112.4
2014-Oct-03 01:31N 59°37' E 023°11'1212.8
2014-Oct-03 00:33N 59°40' E 023°35'1313.0
2014-Oct-02 23:33N 59°43' E 023°60'1312.8
2014-Oct-02 22:34N 59°46' E 024°24'1312.8
2014-Oct-02 21:33N 59°50' E 024°49'2611.0
2014-Oct-02 19:10N 60°03' E 025°34'  

Dump ship's entire track history